sensor_id;sensor_type;location;lat;lon;timestamp;P1;durP1;ratioP1;P2;durP2;ratioP2
6251;SDS011;3159;52.414;9.784;2022-12-10T00:00:24;53.90;;;23.10;;
6251;SDS011;3159;52.414;9.784;2022-12-10T00:02:51;46.00;;;21.83;;
6251;SDS011;3159;52.414;9.784;2022-12-10T00:05:19;48.27;;;22.20;;
6251;SDS011;3159;52.414;9.784;2022-12-10T00:07:46;46.83;;;21.90;;
6251;SDS011;3159;52.414;9.784;2022-12-10T00:10:13;46.13;;;22.53;;
6251;SDS011;3159;52.414;9.784;2022-12-10T00:12:41;49.73;;;22.63;;
6251;SDS011;3159;52.414;9.784;2022-12-10T00:15:08;50.43;;;22.13;;
6251;SDS011;3159;52.414;9.784;2022-12-10T00:17:35;54.13;;;22.73;;
6251;SDS011;3159;52.414;9.784;2022-12-10T00:20:02;55.60;;;24.00;;
6251;SDS011;3159;52.414;9.784;2022-12-10T00:22:29;56.67;;;23.47;;
6251;SDS011;3159;52.414;9.784;2022-12-10T00:24:56;54.80;;;24.53;;
6251;SDS011;3159;52.414;9.784;2022-12-10T00:27:23;53.67;;;23.50;;
6251;SDS011;3159;52.414;9.784;2022-12-10T00:29:51;60.00;;;25.13;;
6251;SDS011;3159;52.414;9.784;2022-12-10T00:32:18;56.27;;;24.30;;
6251;SDS011;3159;52.414;9.784;2022-12-10T00:34:45;58.67;;;25.30;;
6251;SDS011;3159;52.414;9.784;2022-12-10T00:37:11;54.00;;;23.83;;
6251;SDS011;3159;52.414;9.784;2022-12-10T00:39:38;59.00;;;25.00;;
6251;SDS011;3159;52.414;9.784;2022-12-10T00:42:05;50.20;;;24.23;;
6251;SDS011;3159;52.414;9.784;2022-12-10T00:44:32;55.67;;;24.43;;
6251;SDS011;3159;52.414;9.784;2022-12-10T00:47:00;53.40;;;24.80;;
6251;SDS011;3159;52.414;9.784;2022-12-10T00:49:27;51.37;;;22.43;;
6251;SDS011;3159;52.414;9.784;2022-12-10T00:51:53;56.17;;;23.47;;
6251;SDS011;3159;52.414;9.784;2022-12-10T00:54:20;54.60;;;23.77;;
6251;SDS011;3159;52.414;9.784;2022-12-10T00:56:47;57.00;;;23.57;;
6251;SDS011;3159;52.414;9.784;2022-12-10T00:59:14;55.30;;;22.97;;
6251;SDS011;3159;52.414;9.784;2022-12-10T01:01:41;57.03;;;23.17;;
6251;SDS011;3159;52.414;9.784;2022-12-10T01:04:10;49.50;;;21.40;;
6251;SDS011;3159;52.414;9.784;2022-12-10T01:06:41;56.33;;;22.53;;
6251;SDS011;3159;52.414;9.784;2022-12-10T01:09:11;58.80;;;22.47;;
6251;SDS011;3159;52.414;9.784;2022-12-10T01:11:40;49.23;;;22.10;;
6251;SDS011;3159;52.414;9.784;2022-12-10T01:14:11;45.77;;;20.20;;
6251;SDS011;3159;52.414;9.784;2022-12-10T01:16:39;55.17;;;20.83;;
6251;SDS011;3159;52.414;9.784;2022-12-10T01:19:06;54.20;;;21.90;;
6251;SDS011;3159;52.414;9.784;2022-12-10T01:21:35;53.13;;;22.57;;
6251;SDS011;3159;52.414;9.784;2022-12-10T01:24:02;51.33;;;21.63;;
6251;SDS011;3159;52.414;9.784;2022-12-10T01:26:30;52.37;;;20.57;;
6251;SDS011;3159;52.414;9.784;2022-12-10T01:28:59;43.30;;;19.47;;
6251;SDS011;3159;52.414;9.784;2022-12-10T01:31:27;48.87;;;20.53;;
6251;SDS011;3159;52.414;9.784;2022-12-10T01:33:56;52.60;;;21.13;;
6251;SDS011;3159;52.414;9.784;2022-12-10T01:36:24;43.30;;;19.77;;
6251;SDS011;3159;52.414;9.784;2022-12-10T01:38:54;57.83;;;22.60;;
6251;SDS011;3159;52.414;9.784;2022-12-10T01:41:23;54.10;;;21.37;;
6251;SDS011;3159;52.414;9.784;2022-12-10T01:43:53;55.30;;;21.90;;
6251;SDS011;3159;52.414;9.784;2022-12-10T01:46:22;48.20;;;20.60;;
6251;SDS011;3159;52.414;9.784;2022-12-10T01:48:50;62.27;;;23.80;;
6251;SDS011;3159;52.414;9.784;2022-12-10T01:51:18;56.37;;;22.43;;
6251;SDS011;3159;52.414;9.784;2022-12-10T01:53:46;54.20;;;22.50;;
6251;SDS011;3159;52.414;9.784;2022-12-10T01:56:16;58.10;;;22.10;;
6251;SDS011;3159;52.414;9.784;2022-12-10T01:58:45;54.83;;;22.27;;
6251;SDS011;3159;52.414;9.784;2022-12-10T02:01:14;58.23;;;22.73;;
6251;SDS011;3159;52.414;9.784;2022-12-10T02:03:57;51.77;;;20.97;;
6251;SDS011;3159;52.414;9.784;2022-12-10T02:06:40;49.70;;;20.00;;
6251;SDS011;3159;52.414;9.784;2022-12-10T02:09:13;42.00;;;19.23;;
6251;SDS011;3159;52.414;9.784;2022-12-10T02:11:48;43.43;;;18.80;;
6251;SDS011;3159;52.414;9.784;2022-12-10T02:14:27;43.73;;;18.57;;
6251;SDS011;3159;52.414;9.784;2022-12-10T02:17:01;40.33;;;17.70;;
6251;SDS011;3159;52.414;9.784;2022-12-10T02:19:36;35.03;;;16.40;;
6251;SDS011;3159;52.414;9.784;2022-12-10T02:22:16;34.70;;;15.90;;
6251;SDS011;3159;52.414;9.784;2022-12-10T02:24:45;37.00;;;16.70;;
6251;SDS011;3159;52.414;9.784;2022-12-10T02:27:16;39.60;;;16.77;;
6251;SDS011;3159;52.414;9.784;2022-12-10T02:29:50;39.07;;;16.97;;
6251;SDS011;3159;52.414;9.784;2022-12-10T02:32:21;38.37;;;16.70;;
6251;SDS011;3159;52.414;9.784;2022-12-10T02:34:52;35.97;;;16.50;;
6251;SDS011;3159;52.414;9.784;2022-12-10T02:37:23;37.97;;;16.90;;
6251;SDS011;3159;52.414;9.784;2022-12-10T02:39:53;39.27;;;16.07;;
6251;SDS011;3159;52.414;9.784;2022-12-10T02:42:22;38.13;;;17.50;;
6251;SDS011;3159;52.414;9.784;2022-12-10T02:44:53;38.50;;;16.67;;
6251;SDS011;3159;52.414;9.784;2022-12-10T02:47:21;34.03;;;16.03;;
6251;SDS011;3159;52.414;9.784;2022-12-10T02:49:50;32.73;;;15.83;;
6251;SDS011;3159;52.414;9.784;2022-12-10T02:52:19;38.83;;;15.77;;
6251;SDS011;3159;52.414;9.784;2022-12-10T02:54:49;35.40;;;15.97;;
6251;SDS011;3159;52.414;9.784;2022-12-10T02:57:28;34.97;;;15.57;;
6251;SDS011;3159;52.414;9.784;2022-12-10T03:00:07;32.43;;;15.03;;
6251;SDS011;3159;52.414;9.784;2022-12-10T03:02:43;37.47;;;15.67;;
6251;SDS011;3159;52.414;9.784;2022-12-10T03:05:23;32.60;;;14.77;;
6251;SDS011;3159;52.414;9.784;2022-12-10T03:07:57;28.93;;;14.13;;
6251;SDS011;3159;52.414;9.784;2022-12-10T03:10:31;30.20;;;14.50;;
6251;SDS011;3159;52.414;9.784;2022-12-10T03:13:03;27.87;;;13.93;;
6251;SDS011;3159;52.414;9.784;2022-12-10T03:15:34;27.73;;;14.67;;
6251;SDS011;3159;52.414;9.784;2022-12-10T03:18:05;25.73;;;13.27;;
6251;SDS011;3159;52.414;9.784;2022-12-10T03:20:34;30.37;;;14.60;;
6251;SDS011;3159;52.414;9.784;2022-12-10T03:23:05;24.80;;;12.97;;
6251;SDS011;3159;52.414;9.784;2022-12-10T03:25:39;26.37;;;13.40;;
6251;SDS011;3159;52.414;9.784;2022-12-10T03:28:07;26.97;;;13.80;;
6251;SDS011;3159;52.414;9.784;2022-12-10T03:30:36;29.43;;;13.67;;
6251;SDS011;3159;52.414;9.784;2022-12-10T03:33:05;30.23;;;14.60;;
6251;SDS011;3159;52.414;9.784;2022-12-10T03:35:32;34.00;;;15.23;;
6251;SDS011;3159;52.414;9.784;2022-12-10T03:37:59;36.93;;;16.13;;
6251;SDS011;3159;52.414;9.784;2022-12-10T03:40:26;33.97;;;15.37;;
6251;SDS011;3159;52.414;9.784;2022-12-10T03:42:53;30.93;;;15.43;;
6251;SDS011;3159;52.414;9.784;2022-12-10T03:45:20;33.50;;;15.53;;
6251;SDS011;3159;52.414;9.784;2022-12-10T03:47:48;35.50;;;16.33;;
6251;SDS011;3159;52.414;9.784;2022-12-10T03:50:15;35.43;;;15.30;;
6251;SDS011;3159;52.414;9.784;2022-12-10T03:52:42;33.30;;;16.20;;
6251;SDS011;3159;52.414;9.784;2022-12-10T03:55:09;31.50;;;15.60;;
6251;SDS011;3159;52.414;9.784;2022-12-10T03:57:37;29.97;;;14.23;;
6251;SDS011;3159;52.414;9.784;2022-12-10T04:00:04;35.23;;;16.63;;
6251;SDS011;3159;52.414;9.784;2022-12-10T04:02:32;33.67;;;16.43;;
6251;SDS011;3159;52.414;9.784;2022-12-10T04:05:00;36.33;;;15.93;;
6251;SDS011;3159;52.414;9.784;2022-12-10T04:07:27;33.03;;;15.97;;
6251;SDS011;3159;52.414;9.784;2022-12-10T04:09:54;34.03;;;15.87;;
6251;SDS011;3159;52.414;9.784;2022-12-10T04:12:20;32.03;;;16.00;;
6251;SDS011;3159;52.414;9.784;2022-12-10T04:14:47;37.60;;;15.93;;
6251;SDS011;3159;52.414;9.784;2022-12-10T04:17:31;31.63;;;16.03;;
6251;SDS011;3159;52.414;9.784;2022-12-10T04:19:58;35.67;;;16.70;;
6251;SDS011;3159;52.414;9.784;2022-12-10T04:22:27;35.70;;;16.20;;
6251;SDS011;3159;52.414;9.784;2022-12-10T04:25:22;32.40;;;15.27;;
6251;SDS011;3159;52.414;9.784;2022-12-10T04:28:07;32.50;;;15.13;;
6251;SDS011;3159;52.414;9.784;2022-12-10T04:30:34;33.90;;;14.67;;
6251;SDS011;3159;52.414;9.784;2022-12-10T04:33:01;31.07;;;15.00;;
6251;SDS011;3159;52.414;9.784;2022-12-10T04:35:29;31.07;;;14.60;;
6251;SDS011;3159;52.414;9.784;2022-12-10T04:37:55;29.83;;;15.17;;
6251;SDS011;3159;52.414;9.784;2022-12-10T04:40:22;34.23;;;16.07;;
6251;SDS011;3159;52.414;9.784;2022-12-10T04:42:49;35.13;;;15.60;;
6251;SDS011;3159;52.414;9.784;2022-12-10T04:45:16;30.47;;;14.93;;
6251;SDS011;3159;52.414;9.784;2022-12-10T04:47:42;33.50;;;15.83;;
6251;SDS011;3159;52.414;9.784;2022-12-10T04:50:09;29.07;;;14.13;;
6251;SDS011;3159;52.414;9.784;2022-12-10T04:52:37;27.43;;;15.23;;
6251;SDS011;3159;52.414;9.784;2022-12-10T04:55:07;29.40;;;15.13;;
6251;SDS011;3159;52.414;9.784;2022-12-10T04:57:34;31.33;;;14.33;;
6251;SDS011;3159;52.414;9.784;2022-12-10T05:00:02;33.37;;;14.93;;
6251;SDS011;3159;52.414;9.784;2022-12-10T05:02:29;33.03;;;15.33;;
6251;SDS011;3159;52.414;9.784;2022-12-10T05:04:56;32.03;;;15.33;;
6251;SDS011;3159;52.414;9.784;2022-12-10T05:07:23;33.10;;;15.83;;
6251;SDS011;3159;52.414;9.784;2022-12-10T05:09:51;26.23;;;14.50;;
6251;SDS011;3159;52.414;9.784;2022-12-10T05:12:18;30.60;;;15.23;;
6251;SDS011;3159;52.414;9.784;2022-12-10T05:14:44;35.00;;;15.67;;
6251;SDS011;3159;52.414;9.784;2022-12-10T05:17:11;35.57;;;15.50;;
6251;SDS011;3159;52.414;9.784;2022-12-10T05:19:38;29.20;;;14.57;;
6251;SDS011;3159;52.414;9.784;2022-12-10T05:22:05;26.93;;;14.27;;
6251;SDS011;3159;52.414;9.784;2022-12-10T05:24:50;28.63;;;14.70;;
6251;SDS011;3159;52.414;9.784;2022-12-10T05:27:17;31.77;;;15.70;;
6251;SDS011;3159;52.414;9.784;2022-12-10T05:29:44;29.43;;;14.87;;
6251;SDS011;3159;52.414;9.784;2022-12-10T05:32:10;31.53;;;15.53;;
6251;SDS011;3159;52.414;9.784;2022-12-10T05:34:37;27.13;;;14.33;;
6251;SDS011;3159;52.414;9.784;2022-12-10T05:37:04;29.30;;;14.53;;
6251;SDS011;3159;52.414;9.784;2022-12-10T05:39:31;27.70;;;14.80;;
6251;SDS011;3159;52.414;9.784;2022-12-10T05:41:59;26.07;;;13.83;;
6251;SDS011;3159;52.414;9.784;2022-12-10T05:44:26;27.53;;;13.97;;
6251;SDS011;3159;52.414;9.784;2022-12-10T05:46:53;27.40;;;13.77;;
6251;SDS011;3159;52.414;9.784;2022-12-10T05:49:19;27.40;;;14.03;;
6251;SDS011;3159;52.414;9.784;2022-12-10T05:51:46;24.27;;;13.50;;
6251;SDS011;3159;52.414;9.784;2022-12-10T05:54:13;27.30;;;13.67;;
6251;SDS011;3159;52.414;9.784;2022-12-10T05:56:40;28.73;;;14.13;;
6251;SDS011;3159;52.414;9.784;2022-12-10T05:59:08;27.47;;;13.70;;
6251;SDS011;3159;52.414;9.784;2022-12-10T06:01:35;25.40;;;12.33;;
6251;SDS011;3159;52.414;9.784;2022-12-10T06:04:03;24.03;;;13.07;;
6251;SDS011;3159;52.414;9.784;2022-12-10T06:06:31;25.60;;;12.90;;
6251;SDS011;3159;52.414;9.784;2022-12-10T06:08:59;24.93;;;13.57;;
6251;SDS011;3159;52.414;9.784;2022-12-10T06:11:26;24.03;;;12.63;;
6251;SDS011;3159;52.414;9.784;2022-12-10T06:13:53;25.97;;;14.30;;
6251;SDS011;3159;52.414;9.784;2022-12-10T06:16:24;27.07;;;15.03;;
6251;SDS011;3159;52.414;9.784;2022-12-10T06:18:52;27.33;;;14.87;;
6251;SDS011;3159;52.414;9.784;2022-12-10T06:21:18;26.83;;;14.57;;
6251;SDS011;3159;52.414;9.784;2022-12-10T06:23:46;25.53;;;13.73;;
6251;SDS011;3159;52.414;9.784;2022-12-10T06:26:16;26.93;;;14.07;;
6251;SDS011;3159;52.414;9.784;2022-12-10T06:28:45;27.97;;;14.63;;
6251;SDS011;3159;52.414;9.784;2022-12-10T06:31:12;28.07;;;14.87;;
6251;SDS011;3159;52.414;9.784;2022-12-10T06:33:41;32.07;;;14.97;;
6251;SDS011;3159;52.414;9.784;2022-12-10T06:36:09;28.27;;;14.90;;
6251;SDS011;3159;52.414;9.784;2022-12-10T06:38:37;26.83;;;14.60;;
6251;SDS011;3159;52.414;9.784;2022-12-10T06:41:05;29.67;;;14.47;;
6251;SDS011;3159;52.414;9.784;2022-12-10T06:43:33;25.87;;;14.67;;
6251;SDS011;3159;52.414;9.784;2022-12-10T06:46:03;26.93;;;13.97;;
6251;SDS011;3159;52.414;9.784;2022-12-10T06:48:31;29.60;;;14.57;;
6251;SDS011;3159;52.414;9.784;2022-12-10T06:50:59;28.47;;;15.33;;
6251;SDS011;3159;52.414;9.784;2022-12-10T06:53:26;29.80;;;14.87;;
6251;SDS011;3159;52.414;9.784;2022-12-10T06:55:53;30.30;;;15.23;;
6251;SDS011;3159;52.414;9.784;2022-12-10T06:58:19;27.40;;;14.83;;
6251;SDS011;3159;52.414;9.784;2022-12-10T07:00:46;26.57;;;15.03;;
6251;SDS011;3159;52.414;9.784;2022-12-10T07:03:13;27.63;;;14.23;;
6251;SDS011;3159;52.414;9.784;2022-12-10T07:05:40;24.77;;;14.27;;
6251;SDS011;3159;52.414;9.784;2022-12-10T07:08:08;25.57;;;13.70;;
6251;SDS011;3159;52.414;9.784;2022-12-10T07:10:36;24.50;;;13.40;;
6251;SDS011;3159;52.414;9.784;2022-12-10T07:13:02;23.80;;;13.03;;
6251;SDS011;3159;52.414;9.784;2022-12-10T07:15:30;22.57;;;12.93;;
6251;SDS011;3159;52.414;9.784;2022-12-10T07:17:57;25.00;;;12.43;;
6251;SDS011;3159;52.414;9.784;2022-12-10T07:20:24;26.20;;;13.63;;
6251;SDS011;3159;52.414;9.784;2022-12-10T07:22:51;21.67;;;11.77;;
6251;SDS011;3159;52.414;9.784;2022-12-10T07:25:19;22.13;;;12.53;;
6251;SDS011;3159;52.414;9.784;2022-12-10T07:27:45;23.70;;;13.27;;
6251;SDS011;3159;52.414;9.784;2022-12-10T07:30:12;23.50;;;13.73;;
6251;SDS011;3159;52.414;9.784;2022-12-10T07:32:39;22.97;;;12.93;;
6251;SDS011;3159;52.414;9.784;2022-12-10T07:35:06;23.37;;;13.63;;
6251;SDS011;3159;52.414;9.784;2022-12-10T07:37:33;24.20;;;13.27;;
6251;SDS011;3159;52.414;9.784;2022-12-10T07:40:00;23.57;;;13.47;;
6251;SDS011;3159;52.414;9.784;2022-12-10T07:42:29;24.70;;;12.17;;
6251;SDS011;3159;52.414;9.784;2022-12-10T07:44:55;23.30;;;12.07;;
6251;SDS011;3159;52.414;9.784;2022-12-10T07:47:22;24.67;;;12.97;;
6251;SDS011;3159;52.414;9.784;2022-12-10T07:49:49;23.77;;;12.57;;
6251;SDS011;3159;52.414;9.784;2022-12-10T07:52:16;24.53;;;12.23;;
6251;SDS011;3159;52.414;9.784;2022-12-10T07:54:42;25.67;;;13.83;;
6251;SDS011;3159;52.414;9.784;2022-12-10T07:57:09;25.60;;;13.70;;
6251;SDS011;3159;52.414;9.784;2022-12-10T07:59:37;25.37;;;13.47;;
6251;SDS011;3159;52.414;9.784;2022-12-10T08:02:04;25.00;;;13.90;;
6251;SDS011;3159;52.414;9.784;2022-12-10T08:04:31;29.80;;;14.67;;
6251;SDS011;3159;52.414;9.784;2022-12-10T08:06:58;30.53;;;15.00;;
6251;SDS011;3159;52.414;9.784;2022-12-10T08:09:24;27.10;;;14.77;;
6251;SDS011;3159;52.414;9.784;2022-12-10T08:11:52;28.60;;;14.90;;
6251;SDS011;3159;52.414;9.784;2022-12-10T08:14:19;27.93;;;15.43;;
6251;SDS011;3159;52.414;9.784;2022-12-10T08:16:47;29.70;;;15.17;;
6251;SDS011;3159;52.414;9.784;2022-12-10T08:19:14;25.43;;;14.17;;
6251;SDS011;3159;52.414;9.784;2022-12-10T08:21:40;28.43;;;13.60;;
6251;SDS011;3159;52.414;9.784;2022-12-10T08:24:08;27.33;;;13.67;;
6251;SDS011;3159;52.414;9.784;2022-12-10T08:26:35;26.20;;;13.90;;
6251;SDS011;3159;52.414;9.784;2022-12-10T08:29:03;23.63;;;13.27;;
6251;SDS011;3159;52.414;9.784;2022-12-10T08:31:30;24.43;;;13.20;;
6251;SDS011;3159;52.414;9.784;2022-12-10T08:33:58;26.07;;;13.57;;
6251;SDS011;3159;52.414;9.784;2022-12-10T08:36:25;25.90;;;13.33;;
6251;SDS011;3159;52.414;9.784;2022-12-10T08:38:52;23.97;;;13.43;;
6251;SDS011;3159;52.414;9.784;2022-12-10T08:41:20;29.03;;;15.60;;
6251;SDS011;3159;52.414;9.784;2022-12-10T08:43:48;28.13;;;14.30;;
6251;SDS011;3159;52.414;9.784;2022-12-10T08:46:17;27.47;;;14.07;;
6251;SDS011;3159;52.414;9.784;2022-12-10T08:48:43;28.90;;;14.53;;
6251;SDS011;3159;52.414;9.784;2022-12-10T08:51:13;24.23;;;12.93;;
6251;SDS011;3159;52.414;9.784;2022-12-10T08:53:42;27.50;;;13.67;;
6251;SDS011;3159;52.414;9.784;2022-12-10T08:56:09;26.63;;;13.40;;
6251;SDS011;3159;52.414;9.784;2022-12-10T08:58:36;27.27;;;14.77;;
6251;SDS011;3159;52.414;9.784;2022-12-10T09:01:05;27.37;;;14.60;;
6251;SDS011;3159;52.414;9.784;2022-12-10T09:03:32;25.60;;;13.40;;
6251;SDS011;3159;52.414;9.784;2022-12-10T09:06:01;23.50;;;13.93;;
6251;SDS011;3159;52.414;9.784;2022-12-10T09:08:30;25.30;;;13.67;;
6251;SDS011;3159;52.414;9.784;2022-12-10T09:10:57;24.60;;;13.10;;
6251;SDS011;3159;52.414;9.784;2022-12-10T09:13:23;23.83;;;13.47;;
6251;SDS011;3159;52.414;9.784;2022-12-10T09:15:50;24.97;;;13.33;;
6251;SDS011;3159;52.414;9.784;2022-12-10T09:18:18;26.37;;;14.33;;
6251;SDS011;3159;52.414;9.784;2022-12-10T09:20:45;25.17;;;13.50;;
6251;SDS011;3159;52.414;9.784;2022-12-10T09:23:12;25.40;;;14.13;;
6251;SDS011;3159;52.414;9.784;2022-12-10T09:25:40;26.83;;;14.97;;
6251;SDS011;3159;52.414;9.784;2022-12-10T09:28:07;31.13;;;14.90;;
6251;SDS011;3159;52.414;9.784;2022-12-10T09:30:34;31.73;;;14.93;;
6251;SDS011;3159;52.414;9.784;2022-12-10T09:33:01;27.63;;;15.43;;
6251;SDS011;3159;52.414;9.784;2022-12-10T09:35:28;29.57;;;15.20;;
6251;SDS011;3159;52.414;9.784;2022-12-10T09:37:55;29.13;;;15.60;;
6251;SDS011;3159;52.414;9.784;2022-12-10T09:40:30;29.50;;;15.97;;
6251;SDS011;3159;52.414;9.784;2022-12-10T09:43:04;29.07;;;14.80;;
6251;SDS011;3159;52.414;9.784;2022-12-10T09:45:44;27.30;;;14.43;;
6251;SDS011;3159;52.414;9.784;2022-12-10T09:48:19;28.37;;;15.40;;
6251;SDS011;3159;52.414;9.784;2022-12-10T09:50:53;29.30;;;15.20;;
6251;SDS011;3159;52.414;9.784;2022-12-10T09:53:26;25.10;;;15.07;;
6251;SDS011;3159;52.414;9.784;2022-12-10T09:55:55;30.17;;;15.50;;
6251;SDS011;3159;52.414;9.784;2022-12-10T09:58:26;30.03;;;15.43;;
6251;SDS011;3159;52.414;9.784;2022-12-10T10:00:54;30.20;;;15.87;;
6251;SDS011;3159;52.414;9.784;2022-12-10T10:03:24;27.27;;;14.97;;
6251;SDS011;3159;52.414;9.784;2022-12-10T10:05:51;28.50;;;16.93;;
6251;SDS011;3159;52.414;9.784;2022-12-10T10:08:23;31.40;;;15.93;;
6251;SDS011;3159;52.414;9.784;2022-12-10T10:10:55;33.00;;;17.17;;
6251;SDS011;3159;52.414;9.784;2022-12-10T10:13:27;31.17;;;16.80;;
6251;SDS011;3159;52.414;9.784;2022-12-10T10:16:01;27.27;;;14.83;;
6251;SDS011;3159;52.414;9.784;2022-12-10T10:18:43;25.80;;;15.57;;
6251;SDS011;3159;52.414;9.784;2022-12-10T10:21:14;31.10;;;16.43;;
6251;SDS011;3159;52.414;9.784;2022-12-10T10:23:46;29.70;;;15.60;;
6251;SDS011;3159;52.414;9.784;2022-12-10T10:26:14;27.07;;;15.43;;
6251;SDS011;3159;52.414;9.784;2022-12-10T10:28:42;25.30;;;14.17;;
6251;SDS011;3159;52.414;9.784;2022-12-10T10:31:12;28.67;;;15.27;;
6251;SDS011;3159;52.414;9.784;2022-12-10T10:33:47;27.57;;;15.67;;
6251;SDS011;3159;52.414;9.784;2022-12-10T10:36:15;26.70;;;14.00;;
6251;SDS011;3159;52.414;9.784;2022-12-10T10:38:46;24.73;;;14.13;;
6251;SDS011;3159;52.414;9.784;2022-12-10T10:41:14;27.20;;;15.73;;
6251;SDS011;3159;52.414;9.784;2022-12-10T10:43:42;26.23;;;14.67;;
6251;SDS011;3159;52.414;9.784;2022-12-10T10:46:11;26.13;;;13.90;;
6251;SDS011;3159;52.414;9.784;2022-12-10T10:48:40;25.97;;;13.50;;
6251;SDS011;3159;52.414;9.784;2022-12-10T10:51:08;25.40;;;13.50;;
6251;SDS011;3159;52.414;9.784;2022-12-10T10:53:43;26.00;;;13.57;;
6251;SDS011;3159;52.414;9.784;2022-12-10T10:56:12;28.77;;;14.30;;
6251;SDS011;3159;52.414;9.784;2022-12-10T10:58:49;24.93;;;13.47;;
6251;SDS011;3159;52.414;9.784;2022-12-10T11:01:19;23.43;;;12.80;;
6251;SDS011;3159;52.414;9.784;2022-12-10T11:03:48;26.47;;;13.50;;
6251;SDS011;3159;52.414;9.784;2022-12-10T11:06:16;26.97;;;14.00;;
6251;SDS011;3159;52.414;9.784;2022-12-10T11:08:44;26.60;;;13.57;;
6251;SDS011;3159;52.414;9.784;2022-12-10T11:11:17;24.73;;;13.73;;
6251;SDS011;3159;52.414;9.784;2022-12-10T11:13:47;23.33;;;13.47;;
6251;SDS011;3159;52.414;9.784;2022-12-10T11:16:17;25.57;;;13.53;;
6251;SDS011;3159;52.414;9.784;2022-12-10T11:18:51;24.73;;;13.33;;
6251;SDS011;3159;52.414;9.784;2022-12-10T11:21:21;22.13;;;12.57;;
6251;SDS011;3159;52.414;9.784;2022-12-10T11:23:48;20.43;;;12.03;;
6251;SDS011;3159;52.414;9.784;2022-12-10T11:26:21;24.03;;;13.97;;
6251;SDS011;3159;52.414;9.784;2022-12-10T11:29:24;22.80;;;13.50;;
6251;SDS011;3159;52.414;9.784;2022-12-10T11:32:10;24.47;;;13.53;;
6251;SDS011;3159;52.414;9.784;2022-12-10T11:34:54;29.87;;;15.17;;
6251;SDS011;3159;52.414;9.784;2022-12-10T11:37:29;28.37;;;14.43;;
6251;SDS011;3159;52.414;9.784;2022-12-10T11:40:06;25.13;;;13.10;;
6251;SDS011;3159;52.414;9.784;2022-12-10T11:42:47;29.40;;;15.20;;
6251;SDS011;3159;52.414;9.784;2022-12-10T11:45:24;26.53;;;14.30;;
6251;SDS011;3159;52.414;9.784;2022-12-10T11:48:03;24.93;;;14.03;;
6251;SDS011;3159;52.414;9.784;2022-12-10T11:50:41;26.10;;;14.00;;
6251;SDS011;3159;52.414;9.784;2022-12-10T11:53:23;28.93;;;15.33;;
6251;SDS011;3159;52.414;9.784;2022-12-10T11:56:05;26.97;;;15.07;;
6251;SDS011;3159;52.414;9.784;2022-12-10T11:58:48;26.47;;;14.57;;
6251;SDS011;3159;52.414;9.784;2022-12-10T12:01:29;25.13;;;14.63;;
6251;SDS011;3159;52.414;9.784;2022-12-10T12:04:14;26.77;;;14.73;;
6251;SDS011;3159;52.414;9.784;2022-12-10T12:07:05;25.17;;;13.53;;
6251;SDS011;3159;52.414;9.784;2022-12-10T12:09:48;25.93;;;14.10;;
6251;SDS011;3159;52.414;9.784;2022-12-10T12:12:26;32.10;;;14.13;;
6251;SDS011;3159;52.414;9.784;2022-12-10T12:15:02;26.30;;;14.13;;
6251;SDS011;3159;52.414;9.784;2022-12-10T12:17:41;25.47;;;13.43;;
6251;SDS011;3159;52.414;9.784;2022-12-10T12:20:14;26.07;;;14.03;;
6251;SDS011;3159;52.414;9.784;2022-12-10T12:22:45;23.57;;;13.40;;
6251;SDS011;3159;52.414;9.784;2022-12-10T12:25:21;29.83;;;13.27;;
6251;SDS011;3159;52.414;9.784;2022-12-10T12:27:53;27.73;;;13.90;;
6251;SDS011;3159;52.414;9.784;2022-12-10T12:30:24;27.73;;;13.67;;
6251;SDS011;3159;52.414;9.784;2022-12-10T12:32:55;25.57;;;12.93;;
6251;SDS011;3159;52.414;9.784;2022-12-10T12:35:27;30.30;;;14.43;;
6251;SDS011;3159;52.414;9.784;2022-12-10T12:38:00;25.90;;;13.77;;
6251;SDS011;3159;52.414;9.784;2022-12-10T12:40:33;27.30;;;13.63;;
6251;SDS011;3159;52.414;9.784;2022-12-10T12:43:08;31.07;;;15.23;;
6251;SDS011;3159;52.414;9.784;2022-12-10T12:45:39;26.93;;;14.07;;
6251;SDS011;3159;52.414;9.784;2022-12-10T12:48:16;27.73;;;14.67;;
6251;SDS011;3159;52.414;9.784;2022-12-10T12:50:48;29.33;;;14.50;;
6251;SDS011;3159;52.414;9.784;2022-12-10T12:53:19;31.97;;;14.40;;
6251;SDS011;3159;52.414;9.784;2022-12-10T12:55:50;28.30;;;13.57;;
6251;SDS011;3159;52.414;9.784;2022-12-10T12:58:26;25.17;;;12.97;;
6251;SDS011;3159;52.414;9.784;2022-12-10T13:01:08;25.53;;;13.50;;
6251;SDS011;3159;52.414;9.784;2022-12-10T13:03:45;28.73;;;13.07;;
6251;SDS011;3159;52.414;9.784;2022-12-10T13:06:17;25.63;;;13.13;;
6251;SDS011;3159;52.414;9.784;2022-12-10T13:08:48;26.17;;;13.33;;
6251;SDS011;3159;52.414;9.784;2022-12-10T13:11:18;26.87;;;13.67;;
6251;SDS011;3159;52.414;9.784;2022-12-10T13:14:11;25.23;;;13.63;;
6251;SDS011;3159;52.414;9.784;2022-12-10T13:19:51;27.13;;;13.67;;
6251;SDS011;3159;52.414;9.784;2022-12-10T13:25:11;25.83;;;13.40;;
6251;SDS011;3159;52.414;9.784;2022-12-10T13:27:40;26.93;;;14.87;;
6251;SDS011;3159;52.414;9.784;2022-12-10T13:30:28;27.77;;;14.47;;
6251;SDS011;3159;52.414;9.784;2022-12-10T13:33:15;24.67;;;13.53;;
6251;SDS011;3159;52.414;9.784;2022-12-10T13:35:55;26.80;;;13.87;;
6251;SDS011;3159;52.414;9.784;2022-12-10T13:38:24;27.10;;;14.00;;
6251;SDS011;3159;52.414;9.784;2022-12-10T13:40:57;27.23;;;13.63;;
6251;SDS011;3159;52.414;9.784;2022-12-10T13:43:51;29.27;;;14.17;;
6251;SDS011;3159;52.414;9.784;2022-12-10T13:46:50;26.87;;;13.87;;
6251;SDS011;3159;52.414;9.784;2022-12-10T13:49:19;27.80;;;14.03;;
6251;SDS011;3159;52.414;9.784;2022-12-10T13:51:57;28.10;;;14.70;;
6251;SDS011;3159;52.414;9.784;2022-12-10T13:57:22;71.87;;;51.00;;
6251;SDS011;3159;52.414;9.784;2022-12-10T14:00:01;32.50;;;22.53;;
6251;SDS011;3159;52.414;9.784;2022-12-10T14:02:46;27.97;;;17.50;;
6251;SDS011;3159;52.414;9.784;2022-12-10T14:05:29;37.40;;;19.00;;
6251;SDS011;3159;52.414;9.784;2022-12-10T14:08:16;32.37;;;17.30;;
6251;SDS011;3159;52.414;9.784;2022-12-10T14:10:46;32.57;;;17.00;;
6251;SDS011;3159;52.414;9.784;2022-12-10T14:13:14;27.77;;;15.43;;
6251;SDS011;3159;52.414;9.784;2022-12-10T14:15:46;31.20;;;14.47;;
6251;SDS011;3159;52.414;9.784;2022-12-10T14:18:19;26.53;;;14.17;;
6251;SDS011;3159;52.414;9.784;2022-12-10T14:20:47;27.30;;;14.20;;
6251;SDS011;3159;52.414;9.784;2022-12-10T14:23:24;27.00;;;14.60;;
6251;SDS011;3159;52.414;9.784;2022-12-10T14:26:06;28.47;;;14.20;;
6251;SDS011;3159;52.414;9.784;2022-12-10T14:28:40;31.80;;;15.33;;
6251;SDS011;3159;52.414;9.784;2022-12-10T14:31:13;32.23;;;15.90;;
6251;SDS011;3159;52.414;9.784;2022-12-10T14:33:43;30.57;;;15.87;;
6251;SDS011;3159;52.414;9.784;2022-12-10T14:36:17;27.93;;;15.27;;
6251;SDS011;3159;52.414;9.784;2022-12-10T14:38:52;31.77;;;15.17;;
6251;SDS011;3159;52.414;9.784;2022-12-10T14:41:20;29.63;;;15.00;;
6251;SDS011;3159;52.414;9.784;2022-12-10T14:43:49;29.67;;;15.63;;
6251;SDS011;3159;52.414;9.784;2022-12-10T14:46:18;30.83;;;15.80;;
6251;SDS011;3159;52.414;9.784;2022-12-10T14:48:48;33.90;;;17.93;;
6251;SDS011;3159;52.414;9.784;2022-12-10T14:51:18;33.03;;;17.43;;
6251;SDS011;3159;52.414;9.784;2022-12-10T14:53:46;31.90;;;17.10;;
6251;SDS011;3159;52.414;9.784;2022-12-10T14:56:17;35.60;;;18.17;;
6251;SDS011;3159;52.414;9.784;2022-12-10T14:58:49;35.97;;;18.57;;
6251;SDS011;3159;52.414;9.784;2022-12-10T15:01:21;31.83;;;16.77;;
6251;SDS011;3159;52.414;9.784;2022-12-10T15:03:53;35.83;;;18.23;;
6251;SDS011;3159;52.414;9.784;2022-12-10T15:06:21;32.73;;;17.23;;
6251;SDS011;3159;52.414;9.784;2022-12-10T15:08:48;36.33;;;18.00;;
6251;SDS011;3159;52.414;9.784;2022-12-10T15:11:21;31.27;;;17.67;;
6251;SDS011;3159;52.414;9.784;2022-12-10T15:13:51;32.73;;;17.27;;
6251;SDS011;3159;52.414;9.784;2022-12-10T15:16:21;35.93;;;17.73;;